Flight Track Log - Related Links

Times and Time Zones

All times are in EDT time to prevent confusion due to time zone crossing. See the DAL2128 flight status page for this flight to view local times or setup timezone preferences in your user account.

Time Position Orientation Groundspeed Altitude Reporting Facility
EDT Latitude Longitude Course Direction KTS MPH feet Rate Location/Type
Sun 02:47:38 PM 28.4000 -81.3000 352° North 162 186 1,100  Level Orlando TRACON
Sun 02:49:02 PM 28.3333 -81.2500 147° Southeast 234 269 4,900 2,783 Climbing Orlando TRACON
Sun 02:49:56 PM 28.3667 -81.2000 53° Northeast 282 325 7,500 2,386 Climbing Orlando TRACON
Sun 02:51:00 PM 28.9980 -81.3667 North  Level FlightAware Approximate
Sun 02:51:48 PM 28.5189 -81.2317 350° North 301 346 11,500  Level Jacksonville Center
Sun 02:52:00 PM 29.1143 -81.3833 North  Level FlightAware Approximate
Sun 02:52:48 PM 28.6217 -81.2656 344° North 340 391 14,700  Level Jacksonville Center
Sun 02:53:00 PM 29.2316 -81.3886 352° North  Level FlightAware Approximate
Sun 02:53:48 PM 28.7181 -81.3042 341° North 363 418 17,400  Level Jacksonville Center
Sun 02:54:48 PM 28.8231 -81.3450 341° North 376 433 19,500 1,934 Climbing Jacksonville Center
Sun 02:55:49 PM 28.9319 -81.3886 341° North 398 458 21,300 1,700 Climbing Jacksonville Center
Sun 02:56:48 PM 29.0472 -81.4319 342° North 427 491 22,900 850 Climbing Jacksonville Center
Sun 02:57:49 PM 29.1481 -81.4683 343° North 427 491 23,000 843 Climbing Jacksonville Center
Sun 02:58:49 PM 29.2694 -81.5189 340° North 433 498 24,600 1,600 Climbing Jacksonville Center
Sun 02:59:49 PM 29.3933 -81.5697 340° North 453 521 26,200 1,850 Climbing Jacksonville Center
Sun 03:00:49 PM 29.5147 -81.6158 342° North 458 527 28,300 2,017 Climbing Jacksonville Center
Sun 03:01:48 PM 29.6383 -81.6644 341° North 463 533 30,200 1,815 Climbing Jacksonville Center
Sun 03:02:48 PM 29.7619 -81.7058 344° North 463 533 31,900 1,850 Climbing Jacksonville Center
Sun 03:03:48 PM 29.8856 -81.7403 346° North 458 527 33,900 1,550 Climbing Jacksonville Center
Sun 03:04:48 PM 30.0089 -81.7653 350° North 453 521 35,000 1,190 Climbing Jacksonville Center
Sun 03:05:49 PM 30.1364 -81.7806 354° North 453 521 36,300 992 Climbing Jacksonville Center
Sun 03:06:49 PM 30.2661 -81.7983 353° North 453 521 37,000 350 Climbing Jacksonville Center
Sun 03:07:49 PM 30.3914 -81.8186 352° North 453 521 37,000 -50 Level Jacksonville Center
Sun 03:08:49 PM 30.5189 -81.8364 353° North 453 521 36,900  Descending Jacksonville Center
Sun 03:09:48 PM 30.6592 -81.8639 350° North 464 534 37,000 50 Climbing Jacksonville Center
Sun 03:10:49 PM 30.7806 -81.9036 344° North 459 528 37,000  Level Jacksonville Center
Sun 03:11:48 PM 30.9019 -81.9458 343° North 452 520 37,000 403 Level Jacksonville Center
Sun 03:12:48 PM 31.0233 -81.9883 343° North 452 520 37,800 500 Climbing Jacksonville Center
Sun 03:13:48 PM 31.1467 -82.0042 354° North 436 502 38,000 99 Climbing Jacksonville Center
Sun 03:14:49 PM 31.2719 -82.0128 357° North 445 512 38,000 350 Level Jacksonville Center
Sun 03:15:48 PM 31.3972 -82.0211 357° North 445 512 38,700 500 Climbing Jacksonville Center
Sun 03:16:49 PM 31.5225 -82.0297 357° North 443 510 39,000 149 Climbing Jacksonville Center
Sun 03:17:49 PM 31.6458 -82.0336 358° North 448 516 39,000  Level Jacksonville Center
Sun 03:19:30 PM 31.8683 -82.0458 357° North 453 521 39,000  Level Atlanta Center
Sun 03:20:30 PM 31.9978 -82.0575 356° North 463 533 39,000  Level Atlanta Center
Sun 03:21:30 PM 32.1272 -82.0622 358° North 463 533 39,000  Level Atlanta Center
Sun 03:22:30 PM 32.2528 -82.0692 357° North 456 525 39,000  Level Atlanta Center
Sun 03:23:30 PM 32.3842 -82.0786 357° North 461 531 39,000  Level Atlanta Center
Sun 03:24:30 PM 32.5117 -82.0856 357° North 461 531 39,000  Level Atlanta Center
Sun 03:25:30 PM 32.6431 -82.0778 North 461 531 39,000  Level Atlanta Center
Sun 03:26:30 PM 32.7744 -82.0722 North 461 531 39,000  Level Atlanta Center
Sun 03:27:30 PM 32.9058 -82.0619 North 461 531 39,000  Level Atlanta Center
Sun 03:28:30 PM 33.0372 -82.0564 North 461 531 39,000  Level Atlanta Center
Sun 03:29:30 PM 33.1667 -82.0486 North 461 531 39,000  Level Atlanta Center
Sun 03:30:30 PM 33.2875 -82.0408 North 466 536 39,000  Level Atlanta Center
Sun 03:31:30 PM 33.4189 -82.0303 North 466 536 39,000  Level Atlanta Center
Sun 03:32:30 PM 33.5500 -82.0197 North 466 536 39,000  Level Atlanta Center
Sun 03:33:30 PM 33.6817 -82.0142 North 471 542 39,000  Level Atlanta Center
Sun 03:34:30 PM 33.8128 -82.0061 North 471 542 39,000  Level Atlanta Center
Sun 03:35:30 PM 33.9442 -81.9956 North 471 542 39,000  Level Atlanta Center
Sun 03:36:30 PM 34.0736 -81.9900 North 466 536 39,000  Level Atlanta Center
Sun 03:37:30 PM 34.2028 -81.9842 North 466 536 39,000 50 Level Atlanta Center
Sun 03:38:30 PM 34.3300 -81.9736 North 461 531 39,100 350 Climbing Atlanta Center
Sun 03:39:30 PM 34.4717 -81.9650 North 456 525 39,700 450 Climbing Atlanta Center
Sun 03:40:30 PM 34.5989 -81.9544 North 456 525 40,000 150 Climbing Atlanta Center
Sun 03:41:30 PM 34.7344 -81.9461 North 462 532 40,000  Level Atlanta Center
Sun 03:42:30 PM 34.8636 -81.9378 North 467 537 40,000  Level Atlanta Center
Sun 03:43:30 PM 34.9992 -81.9342 North 472 543 40,000  Level Atlanta Center
Sun 03:44:30 PM 35.1328 -81.9333 360° North 477 549 40,000  Level Atlanta Center
Sun 03:45:30 PM 35.2642 -81.9350 359° North 477 549 40,000  Level Atlanta Center
Sun 03:46:30 PM 35.3958 -81.9419 358° North 477 549 40,000  Level Atlanta Center
Sun 03:47:30 PM 35.5314 -81.9461 359° North 477 549 40,000  Level Atlanta Center
Sun 03:48:30 PM 35.6631 -81.9506 358° North 477 549 40,000  Level Atlanta Center
Sun 03:49:30 PM 35.7964 -81.9497 360° North 477 549 40,000  Level Atlanta Center
Sun 03:50:30 PM 35.9156 -81.9542 358° North 477 549 40,000  Level Atlanta Center
Sun 03:51:30 PM 36.0469 -81.9561 359° North 477 549 40,000  Level Atlanta Center
Sun 03:53:14 PM 36.2706 -81.9594 359° North 478 550 40,000  Level Indianapolis Center
Sun 03:54:16 PM 36.4269 -81.9631 359° North 479 551 40,000  Level Indianapolis Center
Sun 03:55:18 PM 36.5611 -81.9667 359° North 482 555 40,000  Level Indianapolis Center
Sun 03:56:20 PM 36.6961 -81.9706 359° North 485 558 40,000  Level Indianapolis Center
Sun 03:57:22 PM 36.8317 -81.9725 359° North 485 558 40,000  Level Indianapolis Center
Sun 03:58:23 PM 36.9647 -81.9769 358° North 481 554 40,000  Level Indianapolis Center
Sun 03:59:25 PM 37.1203 -81.9811 359° North 480 552 40,000  Level Indianapolis Center
Sun 04:00:27 PM 37.2536 -81.9858 358° North 479 551 40,000  Level Indianapolis Center
Sun 04:01:29 PM 37.3861 -81.9892 359° North 477 549 40,000  Level Indianapolis Center
Sun 04:02:31 PM 37.5197 -81.9931 359° North 480 552 40,000  Level Indianapolis Center
Sun 04:03:33 PM 37.6517 -81.9956 359° North 476 548 40,000  Level Indianapolis Center
Sun 04:04:35 PM 37.7869 -81.9997 359° North 484 557 40,000  Level Indianapolis Center
Sun 04:05:37 PM 37.9411 -82.0031 359° North 481 554 40,000  Level Indianapolis Center
Sun 04:06:38 PM 38.0767 -82.0067 359° North 486 559 40,000  Level Indianapolis Center
Sun 04:07:40 PM 38.2111 -82.0103 359° North 481 554 40,000  Level Indianapolis Center
Sun 04:08:42 PM 38.3475 -82.0144 359° North 485 558 40,000  Level Indianapolis Center
Sun 04:09:44 PM 38.4831 -82.0200 358° North 484 557 40,000  Level Indianapolis Center
Sun 04:10:46 PM 38.6194 -82.0231 359° North 485 558 40,000  Level Indianapolis Center
Sun 04:11:48 PM 38.7556 -82.0278 358° North 485 558 40,000  Level Indianapolis Center
Sun 04:12:50 PM 38.8908 -82.0475 354° North 484 557 40,000  Level Indianapolis Center
Sun 04:13:52 PM 39.0525 -82.0753 352° North 486 559 40,000  Level Indianapolis Center
Sun 04:14:53 PM 39.1875 -82.0958 353° North 486 559 40,000 -390 Level Indianapolis Center
Sun 04:15:55 PM 39.3233 -82.1164 353° North 489 563 39,200 -1,161 Descending Indianapolis Center
Sun 04:16:57 PM 39.4611 -82.1381 353° North 487 560 37,600 -1,548 Descending Indianapolis Center
Sun 04:17:59 PM 39.5969 -82.1592 353° North 488 562 36,000 -1,306 Descending Indianapolis Center
Sun 04:19:01 PM 39.7333 -82.1803 353° North 490 564 34,900 -484 Descending Indianapolis Center
Sun 04:20:03 PM 39.8714 -82.2036 353° North 497 572 35,000 49 Climbing Indianapolis Center
Sun 04:21:04 PM 40.0103 -82.2258 353° North 500 575 35,000 -390 Level Indianapolis Center
Sun 04:22:06 PM 40.1497 -82.2489 353° North 503 579 34,200 -1,258 Descending Indianapolis Center
Sun 04:23:08 PM 40.3039 -82.2733 353° North 495 570 32,400 -1,935 Descending Indianapolis Center
Sun 04:24:10 PM 40.4425 -82.2972 353° North 494 568 30,200 -1,161 Descending Indianapolis Center
Sun 04:25:12 PM 40.5756 -82.3278 350° North 481 554 30,000 -98 Descending Indianapolis Center
Sun 04:26:13 PM 40.7086 -82.3675 347° North 481 554 30,000 -1,024 Level Indianapolis Center
Sun 04:27:15 PM 40.8428 -82.4075 347° North 487 560 27,900 -1,984 Descending Indianapolis Center
Sun 04:28:17 PM 40.9722 -82.4450 348° North 472 543 25,900 -2,017 Descending Indianapolis Center
Sun 04:29:11 PM 41.0936 -82.4814 347° North 461 531 24,000 -1,526 Descending Cleveland Center
Sun 04:30:11 PM 41.2097 -82.5181 347° North 431 496 23,000 -1,700 Descending Cleveland Center
Sun 04:31:11 PM 41.3025 -82.5844 332° Northwest 386 444 20,600 -2,050 Descending Cleveland Center
Sun 04:32:11 PM 41.3781 -82.6725 319° Northwest 394 453 18,900 -1,800 Descending Cleveland Center
Sun 04:32:41 PM 41.4269 -82.7294 319° Northwest 398 458 17,900 -1,700 Descending Cleveland Center
Sun 04:33:11 PM 41.4597 -82.7664 320° Northwest 402 463 17,200 -1,770 Descending Cleveland Center
Sun 04:33:42 PM 41.5106 -82.8264 319° Northwest 371 427 16,100 -1,806 Descending Cleveland Center
Sun 04:34:44 PM 41.5861 -82.9125 320° Northwest 357 411 14,400 -1,721 Descending Cleveland Center
Sun 04:35:44 PM 41.6656 -82.9986 321° Northwest 363 418 12,600 -1,180 Descending Cleveland Center
Sun 04:36:46 PM 41.7475 -83.0686 327° Northwest 339 390 12,000 -293 Descending Cleveland Center
Sun 04:37:47 PM 41.8358 -83.1306 332° Northwest 342 394 12,000  Level Cleveland Center
Sun 04:38:48 PM 41.9225 -83.1731 340° North 340 391 12,000  Level Cleveland Center
Sun 04:39:49 PM 42.0172 -83.2217 339° North 344 396 12,000  Level Cleveland Center
Sun 04:40:50 PM 42.0894 -83.2525 342° North 261 300 12,000  Level Cleveland Center
Sun 04:41:51 PM 42.1606 -83.2444 North 257 296 12,000 -836 Level Cleveland Center
Sun 04:42:52 PM 42.2342 -83.2081 20° North 289 333 10,300 -1,140 Descending Cleveland Center
Sun 04:43:52 PM 42.3000 -83.1575 30° Northeast 251 289 9,700 -645 Descending Cleveland Center
Sun 04:44:53 PM 42.3594 -83.1094 31° Northeast 247 284 9,000 -541 Descending Cleveland Center
Sun 04:45:54 PM 42.4208 -83.0697 26° Northeast 240 276 8,600 -934 Descending Cleveland Center
Sun 04:46:55 PM 42.4678 -83.1108 327° Northwest 213 245 7,100 -1,574 Descending Cleveland Center
Sun 04:47:56 PM 42.4394 -83.1717 238° Southwest 201 231 5,400 -1,328 Descending Cleveland Center
Sun 04:48:57 PM 42.3906 -83.2119 211° Southwest 194 223 4,400 -984 Descending Cleveland Center

Login

Don't have an account? Register now (free) for customized features, flight alerts, and more!